createdAt,value
2023-03-28T00:00:29.500Z,18.80
2023-03-28T00:03:01.640Z,24.53
2023-03-28T00:05:33.370Z,16.85
2023-03-28T00:08:05.121Z,15.50
2023-03-28T00:10:37.370Z,15.68
2023-03-28T00:13:09.128Z,34.38
2023-03-28T00:15:42.615Z,22.65
2023-03-28T00:18:15.072Z,18.58
2023-03-28T00:20:45.804Z,18.98
2023-03-28T00:23:18.038Z,17.50
2023-03-28T00:25:50.022Z,23.27
2023-03-28T00:28:22.019Z,20.15
2023-03-28T00:30:53.974Z,22.62
2023-03-28T00:33:26.005Z,24.90
2023-03-28T00:35:59.011Z,35.88
2023-03-28T00:38:33.256Z,28.52
2023-03-28T00:41:07.228Z,26.87
2023-03-28T00:43:43.691Z,41.95
2023-03-28T00:46:22.284Z,29.23
2023-03-28T00:48:58.277Z,41.40
2023-03-28T00:51:34.397Z,42.13
2023-03-28T00:54:08.603Z,44.05
2023-03-28T00:56:42.329Z,66.80
2023-03-28T00:59:19.862Z,35.45
2023-03-28T01:01:52.660Z,37.85
2023-03-28T01:04:27.080Z,22.73
2023-03-28T01:06:59.828Z,29.48
2023-03-28T01:09:33.464Z,39.97
2023-03-28T01:12:05.654Z,70.47
2023-03-28T01:14:40.501Z,54.35
2023-03-28T01:17:14.189Z,94.87
2023-03-28T01:20:00.103Z,63.97
2023-03-28T01:22:58.018Z,50.10
2023-03-28T01:25:57.594Z,67.15
2023-03-28T01:28:39.082Z,78.37
2023-03-28T01:31:32.363Z,70.12
2023-03-28T01:34:45.781Z,52.83
2023-03-28T01:37:43.377Z,41.47
2023-03-28T01:40:39.253Z,70.68
2023-03-28T01:43:13.702Z,54.40
2023-03-28T01:45:52.380Z,49.55
2023-03-28T01:48:58.771Z,31.30
2023-03-28T01:51:51.799Z,53.03
2023-03-28T01:54:35.713Z,26.60
2023-03-28T01:57:15.248Z,14.90
2023-03-28T01:59:55.585Z,14.18
2023-03-28T02:02:40.676Z,11.55
2023-03-28T02:05:18.130Z,16.33
2023-03-28T02:07:53.046Z,17.30
2023-03-28T02:10:28.511Z,11.10
2023-03-28T02:13:05.996Z,14.90
2023-03-28T02:15:43.014Z,14.85
2023-03-28T02:18:21.450Z,15.10
2023-03-28T02:21:01.719Z,15.13
2023-03-28T02:23:41.224Z,14.30
2023-03-28T02:26:13.630Z,14.63
2023-03-28T02:28:46.837Z,22.58
2023-03-28T02:31:19.191Z,13.55
2023-03-28T02:33:52.501Z,17.20
2023-03-28T02:36:45.471Z,18.35
2023-03-28T02:39:20.540Z,24.95
2023-03-28T02:42:10.328Z,45.60
2023-03-28T02:44:51.285Z,22.37
2023-03-28T02:47:36.040Z,18.90
2023-03-28T02:50:35.259Z,16.12
2023-03-28T02:53:18.834Z,11.38
2023-03-28T02:56:08.796Z,17.23
2023-03-28T02:58:59.043Z,33.72
2023-03-28T03:01:32.175Z,25.58
2023-03-28T03:04:04.098Z,27.77
2023-03-28T03:06:37.544Z,94.57
2023-03-28T03:09:08.896Z,19.87
2023-03-28T03:11:43.033Z,16.60
2023-03-28T03:14:14.657Z,14.80
2023-03-28T03:16:46.710Z,13.70
2023-03-28T03:19:20.681Z,14.52
2023-03-28T03:21:53.138Z,16.73
2023-03-28T03:24:25.990Z,19.98
2023-03-28T03:27:01.891Z,14.75
2023-03-28T03:29:38.969Z,18.98
2023-03-28T03:32:17.228Z,19.35
2023-03-28T03:34:49.322Z,14.50
2023-03-28T03:37:21.618Z,33.03
2023-03-28T03:39:52.880Z,22.08
2023-03-28T03:42:30.334Z,19.98
2023-03-28T03:45:01.946Z,35.38
2023-03-28T03:47:35.101Z,17.90
2023-03-28T03:50:08.346Z,17.60
2023-03-28T03:52:40.975Z,42.67
2023-03-28T03:55:12.326Z,13.62
2023-03-28T03:57:44.458Z,11.80
2023-03-28T04:00:15.722Z,11.85
2023-03-28T04:02:51.367Z,16.10
2023-03-28T04:05:24.119Z,16.55
2023-03-28T04:08:02.550Z,15.43
2023-03-28T04:10:35.254Z,12.57
2023-03-28T04:13:06.646Z,12.93
2023-03-28T04:15:38.970Z,23.38
2023-03-28T04:18:12.815Z,18.35
2023-03-28T04:20:44.402Z,20.83
2023-03-28T04:23:21.707Z,11.10
2023-03-28T04:26:01.095Z,13.62
2023-03-28T04:28:41.004Z,9.98
2023-03-28T04:31:13.283Z,12.15
2023-03-28T04:34:06.241Z,11.02
2023-03-28T04:36:39.007Z,10.77
2023-03-28T04:39:10.836Z,11.50
2023-03-28T04:44:15.944Z,18.37
2023-03-28T04:46:49.678Z,22.92
2023-03-28T04:49:22.228Z,13.35
2023-03-28T04:51:55.636Z,11.12
2023-03-28T04:54:28.338Z,13.90
2023-03-28T04:57:06.101Z,61.67
2023-03-28T04:59:40.427Z,10.50
2023-03-28T05:02:12.406Z,9.00
2023-03-28T05:04:45.077Z,19.35
2023-03-28T05:07:17.830Z,10.98
2023-03-28T05:09:50.771Z,11.07
2023-03-28T05:12:22.858Z,10.35
2023-03-28T05:14:55.969Z,17.00
2023-03-28T05:17:28.147Z,8.30
2023-03-28T05:20:00.317Z,12.57
2023-03-28T05:22:35.203Z,9.07
2023-03-28T05:25:09.134Z,10.23
2023-03-28T05:27:42.575Z,9.02
2023-03-28T05:30:15.689Z,8.93
2023-03-28T05:32:47.720Z,7.80
2023-03-28T05:35:20.210Z,8.50
2023-03-28T05:37:52.803Z,8.82
2023-03-28T05:40:24.237Z,8.52
2023-03-28T05:42:56.588Z,5.40
2023-03-28T05:45:28.993Z,10.55
2023-03-28T05:50:33.071Z,6.53
2023-03-28T05:55:36.736Z,13.38
2023-03-28T05:58:09.012Z,5.43
2023-03-28T06:00:39.932Z,9.15
2023-03-28T06:03:16.577Z,3.83
2023-03-28T06:05:50.186Z,9.98
2023-03-28T06:08:22.584Z,2.90
2023-03-28T06:10:54.636Z,5.53
2023-03-28T06:13:27.190Z,6.62
2023-03-28T06:15:58.688Z,5.47
2023-03-28T06:18:32.798Z,6.35
2023-03-28T06:21:04.983Z,6.77
2023-03-28T06:23:36.660Z,6.97
2023-03-28T06:26:22.863Z,9.43
2023-03-28T06:28:53.990Z,10.45
2023-03-28T06:31:24.488Z,8.02
2023-03-28T06:33:55.313Z,11.38
2023-03-28T06:36:27.250Z,9.05
2023-03-28T06:38:59.182Z,11.95
2023-03-28T06:41:31.527Z,13.40
2023-03-28T06:44:04.230Z,7.95
2023-03-28T06:46:38.578Z,10.63
2023-03-28T06:49:09.940Z,8.45
2023-03-28T06:51:42.110Z,10.83
2023-03-28T06:54:14.053Z,7.70
2023-03-28T06:56:47.050Z,5.18
2023-03-28T06:59:18.797Z,9.77
2023-03-28T07:04:22.630Z,7.18
2023-03-28T07:06:54.488Z,10.32
2023-03-28T07:09:25.786Z,11.47
2023-03-28T07:11:58.695Z,8.13
2023-03-28T07:14:30.540Z,9.10
2023-03-28T07:17:02.178Z,6.40
2023-03-28T07:19:34.839Z,7.47
2023-03-28T07:22:05.500Z,8.63
2023-03-28T07:24:39.555Z,9.38
2023-03-28T07:27:15.562Z,6.45
2023-03-28T07:29:48.442Z,6.62
2023-03-28T07:32:19.322Z,5.30
2023-03-28T07:34:51.622Z,8.48
2023-03-28T07:37:23.835Z,3.72
2023-03-28T07:39:57.704Z,4.62
2023-03-28T07:42:30.220Z,6.30
2023-03-28T07:45:01.296Z,5.10
2023-03-28T07:47:34.015Z,4.82
2023-03-28T07:50:06.829Z,3.08
2023-03-28T07:52:38.857Z,5.60
2023-03-28T07:55:09.913Z,4.78
2023-03-28T08:00:14.453Z,6.72
2023-03-28T08:02:48.728Z,3.55
2023-03-28T08:05:19.784Z,5.07
2023-03-28T08:07:50.696Z,5.28
2023-03-28T08:10:22.538Z,7.65
2023-03-28T08:12:55.059Z,6.95
2023-03-28T08:15:27.025Z,5.78
2023-03-28T08:17:59.344Z,5.82
2023-03-28T08:20:30.805Z,8.10
2023-03-28T08:23:04.864Z,5.60
2023-03-28T08:25:40.835Z,5.40
2023-03-28T08:28:12.924Z,5.43
2023-03-28T08:30:43.656Z,4.37
2023-03-28T08:33:14.613Z,4.90
2023-03-28T08:35:45.876Z,8.23
2023-03-28T08:38:19.395Z,3.97
2023-03-28T08:41:02.641Z,3.90
2023-03-28T08:43:46.549Z,5.82
2023-03-28T08:46:22.825Z,7.35
2023-03-28T08:48:57.238Z,5.55
2023-03-28T08:51:32.714Z,7.65
2023-03-28T08:54:09.356Z,5.85
2023-03-28T08:56:47.545Z,4.32
2023-03-28T08:59:23.442Z,4.22
2023-03-28T09:01:54.778Z,4.87
2023-03-28T09:04:38.694Z,6.40
2023-03-28T09:07:22.597Z,5.93
2023-03-28T09:10:21.652Z,6.00
2023-03-28T09:13:03.747Z,4.82
2023-03-28T09:15:43.596Z,8.57
2023-03-28T09:18:20.627Z,10.10
2023-03-28T09:21:07.522Z,10.38
2023-03-28T09:24:05.989Z,5.90
2023-03-28T09:26:46.195Z,8.65
2023-03-28T09:29:22.425Z,9.13
2023-03-28T09:32:01.264Z,6.25
2023-03-28T09:37:20.271Z,8.82
2023-03-28T09:39:54.017Z,8.02
2023-03-28T09:42:47.969Z,6.32
2023-03-28T09:45:43.735Z,7.10
2023-03-28T09:48:33.861Z,7.18
2023-03-28T09:51:07.694Z,7.93
2023-03-28T09:53:40.410Z,6.18
2023-03-28T09:56:35.329Z,4.57
2023-03-28T09:59:24.162Z,5.15
2023-03-28T10:01:57.654Z,7.40
2023-03-28T10:04:38.957Z,6.20
2023-03-28T10:07:20.221Z,8.43
2023-03-28T10:09:56.019Z,8.10
2023-03-28T10:12:37.291Z,7.75
2023-03-28T10:15:28.926Z,7.45
2023-03-28T10:18:08.970Z,6.20
2023-03-28T10:20:43.148Z,8.02
2023-03-28T10:23:15.953Z,8.00
2023-03-28T10:25:52.303Z,7.00
2023-03-28T10:28:32.854Z,5.40
2023-03-28T10:31:07.233Z,5.65
2023-03-28T10:33:45.160Z,7.28
2023-03-28T10:36:30.570Z,6.68
2023-03-28T10:39:21.222Z,7.15
2023-03-28T10:44:32.814Z,4.37
2023-03-28T10:47:08.224Z,5.12
2023-03-28T10:49:48.353Z,3.75
2023-03-28T10:52:48.394Z,4.72
2023-03-28T10:55:27.630Z,4.55
2023-03-28T10:58:06.785Z,4.35
2023-03-28T11:00:42.534Z,4.60
2023-03-28T11:03:26.681Z,3.58
2023-03-28T11:08:59.615Z,3.62
2023-03-28T11:11:54.943Z,4.95
2023-03-28T11:14:37.981Z,3.30
2023-03-28T11:17:32.035Z,6.30
2023-03-28T11:20:30.126Z,4.95
2023-03-28T11:23:25.068Z,2.37
2023-03-28T11:26:23.469Z,3.83
2023-03-28T11:29:13.421Z,3.85
2023-03-28T11:32:17.422Z,3.83
2023-03-28T11:34:59.076Z,2.83
2023-03-28T11:37:33.916Z,3.92
2023-03-28T11:40:31.600Z,2.20
2023-03-28T11:43:07.734Z,4.18
2023-03-28T11:45:52.703Z,3.78
2023-03-28T11:48:25.638Z,3.20
2023-03-28T11:51:22.258Z,1.75
2023-03-28T11:54:02.248Z,2.50
2023-03-28T11:56:54.783Z,3.10
2023-03-28T11:59:53.607Z,1.83
2023-03-28T12:02:42.756Z,2.33
2023-03-28T12:05:26.857Z,4.00
2023-03-28T12:08:05.609Z,2.58
2023-03-28T12:10:39.543Z,2.40
2023-03-28T12:13:46.061Z,5.62
2023-03-28T12:16:26.923Z,1.80
2023-03-28T12:19:02.638Z,1.85
2023-03-28T12:21:44.702Z,1.27
2023-03-28T12:24:44.110Z,2.10
2023-03-28T12:27:41.254Z,1.65
2023-03-28T12:30:33.713Z,1.48
2023-03-28T12:33:26.844Z,2.22
2023-03-28T12:36:18.703Z,3.08
2023-03-28T12:39:05.632Z,3.30
2023-03-28T12:41:41.454Z,3.03
2023-03-28T12:44:23.126Z,1.95
2023-03-28T12:47:03.023Z,2.80
2023-03-28T12:49:53.158Z,3.37
2023-03-28T12:52:27.340Z,2.22
2023-03-28T12:55:02.322Z,1.85
2023-03-28T12:57:45.172Z,2.35
2023-03-28T13:00:35.361Z,1.62
2023-03-28T13:03:36.664Z,1.70
2023-03-28T13:06:38.260Z,2.20
2023-03-28T13:09:25.052Z,1.73
2023-03-28T13:12:09.661Z,1.85
2023-03-28T13:14:42.775Z,2.28
2023-03-28T13:17:35.845Z,2.12
2023-03-28T13:20:22.185Z,1.55
2023-03-28T13:23:02.984Z,4.18
2023-03-28T13:25:36.911Z,2.55
2023-03-28T13:28:30.815Z,2.35
2023-03-28T13:31:09.044Z,2.37
2023-03-28T13:33:48.084Z,4.35
2023-03-28T13:36:24.463Z,1.65
2023-03-28T13:39:10.998Z,2.30
2023-03-28T13:41:44.948Z,2.65
2023-03-28T13:44:17.845Z,2.25
2023-03-28T13:46:51.463Z,1.83
2023-03-28T13:49:45.267Z,2.20
2023-03-28T13:54:54.899Z,3.50
2023-03-28T13:57:27.829Z,2.20
2023-03-28T14:00:02.377Z,2.08
2023-03-28T14:02:47.584Z,3.03
2023-03-28T14:05:25.145Z,3.10
2023-03-28T14:08:02.550Z,4.43
2023-03-28T14:10:35.975Z,5.12
2023-03-28T14:13:13.069Z,3.92
2023-03-28T14:15:45.996Z,3.62
2023-03-28T14:18:22.810Z,3.50
2023-03-28T14:20:57.593Z,5.50
2023-03-28T14:23:37.861Z,4.97
2023-03-28T14:26:23.494Z,4.37
2023-03-28T14:28:59.152Z,4.55
2023-03-28T14:31:34.330Z,3.20
2023-03-28T14:34:25.602Z,5.05
2023-03-28T14:37:00.276Z,3.78
2023-03-28T14:39:36.021Z,4.12
2023-03-28T14:42:09.699Z,3.08
2023-03-28T14:44:46.216Z,2.55
2023-03-28T14:47:28.153Z,4.43
2023-03-28T14:50:01.368Z,2.28
2023-03-28T14:52:42.122Z,3.33
2023-03-28T14:55:21.088Z,2.72
2023-03-28T14:57:55.699Z,1.95
2023-03-28T15:00:36.675Z,4.47
2023-03-28T15:03:14.931Z,2.47
2023-03-28T15:05:50.375Z,2.25
2023-03-28T15:08:40.103Z,2.62
2023-03-28T15:11:33.659Z,4.78
2023-03-28T15:14:31.322Z,5.18
2023-03-28T15:17:03.280Z,4.00
2023-03-28T15:22:28.945Z,3.35
2023-03-28T15:25:01.491Z,6.37
2023-03-28T15:27:36.691Z,5.45
2023-03-28T15:30:16.010Z,5.32
2023-03-28T15:32:49.274Z,2.10
2023-03-28T15:35:40.158Z,3.53
2023-03-28T15:38:21.695Z,3.15
2023-03-28T15:41:06.403Z,3.62
2023-03-28T15:44:00.213Z,3.22
2023-03-28T15:46:35.148Z,5.28
2023-03-28T15:49:07.457Z,3.17
2023-03-28T15:51:58.210Z,4.90
2023-03-28T15:54:32.409Z,4.60
2023-03-28T15:57:04.293Z,3.97
2023-03-28T15:59:40.497Z,4.05
2023-03-28T16:02:32.639Z,2.75
2023-03-28T16:05:09.046Z,3.95
2023-03-28T16:07:48.537Z,5.80
2023-03-28T16:10:22.675Z,5.90
2023-03-28T16:13:00.506Z,6.55
2023-03-28T16:15:33.449Z,7.15
2023-03-28T16:18:05.704Z,9.52
2023-03-28T16:20:37.407Z,10.00
2023-03-28T16:23:09.421Z,9.00
2023-03-28T16:25:42.823Z,3.95
2023-03-28T16:28:21.135Z,6.70
2023-03-28T16:30:54.326Z,3.80
2023-03-28T16:33:26.681Z,3.40
2023-03-28T16:35:59.674Z,4.45
2023-03-28T16:38:31.177Z,3.65
2023-03-28T16:41:03.659Z,3.17
2023-03-28T16:43:35.499Z,2.58
2023-03-28T16:46:06.649Z,5.20
2023-03-28T16:48:38.485Z,2.22
2023-03-28T16:51:10.217Z,5.30
2023-03-28T16:53:40.247Z,4.65
2023-03-28T16:56:12.864Z,6.15
2023-03-28T16:58:42.719Z,5.18
2023-03-28T17:01:20.293Z,3.97
2023-03-28T17:03:54.035Z,4.97
2023-03-28T17:06:26.639Z,5.85
2023-03-28T17:08:59.067Z,6.07
2023-03-28T17:14:03.080Z,4.43
2023-03-28T17:16:35.498Z,5.07
2023-03-28T17:19:06.888Z,5.47
2023-03-28T17:21:38.871Z,9.60
2023-03-28T17:24:12.181Z,5.80
2023-03-28T17:26:44.132Z,8.60
2023-03-28T17:29:17.272Z,9.48
2023-03-28T17:31:47.252Z,11.48
2023-03-28T17:34:18.107Z,8.10
2023-03-28T17:39:23.900Z,8.18
2023-03-28T17:41:55.817Z,8.60
2023-03-28T17:44:27.841Z,11.30
2023-03-28T17:47:01.566Z,9.68
2023-03-28T17:49:33.881Z,9.35
2023-03-28T17:52:05.482Z,6.45
2023-03-28T17:54:36.856Z,6.90
2023-03-28T17:57:09.190Z,6.20
2023-03-28T17:59:41.230Z,6.37
2023-03-28T18:02:13.670Z,7.35
2023-03-28T18:04:47.551Z,6.70
2023-03-28T18:07:18.952Z,7.00
2023-03-28T18:09:50.609Z,8.02
2023-03-28T18:12:22.163Z,6.10
2023-03-28T18:14:54.235Z,7.70
2023-03-28T18:17:25.787Z,7.97
2023-03-28T18:19:56.776Z,8.73
2023-03-28T18:22:28.978Z,11.65
2023-03-28T18:25:01.119Z,9.68
2023-03-28T18:27:33.324Z,9.38
2023-03-28T18:30:08.091Z,9.70
2023-03-28T18:32:39.827Z,9.70
2023-03-28T18:35:12.376Z,9.80
2023-03-28T18:37:45.014Z,10.10
2023-03-28T18:40:17.872Z,7.82
2023-03-28T18:42:51.394Z,7.82
2023-03-28T18:45:24.369Z,7.95
2023-03-28T18:47:55.057Z,9.40
2023-03-28T18:50:28.518Z,8.30
2023-03-28T18:53:00.123Z,9.38
2023-03-28T18:55:31.748Z,8.10
2023-03-28T18:58:05.365Z,7.50
2023-03-28T19:00:37.772Z,7.35
2023-03-28T19:03:11.203Z,10.43
2023-03-28T19:05:41.963Z,7.53
2023-03-28T19:08:13.640Z,6.87
2023-03-28T19:13:18.783Z,6.47
2023-03-28T19:15:58.935Z,8.68
2023-03-28T19:18:31.096Z,9.10
2023-03-28T19:21:03.540Z,5.95
2023-03-28T19:23:37.580Z,7.83
2023-03-28T19:26:11.808Z,6.82
2023-03-28T19:31:15.560Z,6.82
2023-03-28T19:33:47.573Z,6.87
2023-03-28T19:36:19.409Z,7.10
2023-03-28T19:38:50.338Z,7.60
2023-03-28T19:41:25.670Z,7.53
2023-03-28T19:43:58.275Z,5.95
2023-03-28T19:46:34.028Z,5.85
2023-03-28T19:49:07.850Z,4.95
2023-03-28T19:51:39.552Z,5.90
2023-03-28T19:54:10.586Z,7.47
2023-03-28T19:56:42.866Z,5.87
2023-03-28T19:59:12.096Z,5.65
2023-03-28T20:01:42.913Z,5.35
2023-03-28T20:04:14.462Z,5.70
2023-03-28T20:06:46.331Z,4.45
2023-03-28T20:09:18.479Z,5.43
2023-03-28T20:11:50.949Z,5.37
2023-03-28T20:14:22.428Z,6.37
2023-03-28T20:16:54.923Z,4.70
2023-03-28T20:19:27.254Z,6.03
2023-03-28T20:21:58.946Z,7.57
2023-03-28T20:24:30.440Z,6.47
2023-03-28T20:27:01.918Z,8.30
2023-03-28T20:29:33.808Z,7.40
2023-03-28T20:32:08.011Z,7.00
2023-03-28T20:34:40.686Z,7.10
2023-03-28T20:37:15.454Z,6.60
2023-03-28T20:39:49.340Z,7.07
2023-03-28T20:42:21.044Z,7.53
2023-03-28T20:44:50.539Z,7.43
2023-03-28T20:47:23.457Z,7.70
2023-03-28T20:49:59.745Z,7.00
2023-03-28T20:52:31.402Z,8.32
2023-03-28T20:55:02.657Z,7.68
2023-03-28T20:57:41.746Z,7.60
2023-03-28T21:00:15.577Z,6.47
2023-03-28T21:02:54.560Z,7.28
2023-03-28T21:05:28.193Z,7.47
2023-03-28T21:08:00.569Z,7.70
2023-03-28T21:13:05.717Z,6.82
2023-03-28T21:15:36.943Z,7.83
2023-03-28T21:18:10.500Z,8.90
2023-03-28T21:20:42.534Z,8.27
2023-03-28T21:23:16.993Z,8.38
2023-03-28T21:25:50.108Z,8.35
2023-03-28T21:28:21.851Z,7.25
2023-03-28T21:31:12.767Z,7.62
2023-03-28T21:33:44.853Z,7.82
2023-03-28T21:36:18.328Z,6.78
2023-03-28T21:38:50.766Z,8.40
2023-03-28T21:41:23.752Z,7.37
2023-03-28T21:43:55.900Z,7.43
2023-03-28T21:46:28.842Z,7.10
2023-03-28T21:48:59.584Z,6.53
2023-03-28T21:51:32.357Z,5.00
2023-03-28T21:54:03.576Z,6.62
2023-03-28T21:56:35.504Z,7.47
2023-03-28T21:59:08.033Z,6.07
2023-03-28T22:01:39.937Z,5.47
2023-03-28T22:04:10.876Z,6.18
2023-03-28T22:06:42.381Z,5.37
2023-03-28T22:09:13.909Z,8.05
2023-03-28T22:11:45.375Z,6.72
2023-03-28T22:14:16.930Z,6.12
2023-03-28T22:16:48.879Z,6.43
2023-03-28T22:19:21.637Z,5.50
2023-03-28T22:21:52.925Z,6.93
2023-03-28T22:24:25.393Z,6.20
2023-03-28T22:26:58.493Z,5.47
2023-03-28T22:29:29.762Z,7.20
2023-03-28T22:32:01.197Z,5.35
2023-03-28T22:34:32.425Z,8.88
2023-03-28T22:37:03.701Z,6.82
2023-03-28T22:39:35.633Z,6.40
2023-03-28T22:42:08.174Z,6.60
2023-03-28T22:44:39.767Z,6.47
2023-03-28T22:47:10.657Z,9.07
2023-03-28T22:49:42.426Z,6.65
2023-03-28T22:52:14.344Z,4.95
2023-03-28T22:54:46.138Z,5.72
2023-03-28T22:57:17.605Z,6.97
2023-03-28T22:59:51.237Z,5.47
2023-03-28T23:02:22.804Z,7.03
2023-03-28T23:04:55.182Z,5.15
2023-03-28T23:07:25.712Z,6.22
2023-03-28T23:09:56.958Z,6.07
2023-03-28T23:12:27.897Z,5.53
2023-03-28T23:14:59.777Z,5.15
2023-03-28T23:17:31.191Z,5.15
2023-03-28T23:20:03.517Z,4.97
2023-03-28T23:22:34.543Z,5.53
2023-03-28T23:25:06.183Z,3.92
2023-03-28T23:27:37.313Z,4.07
2023-03-28T23:30:10.401Z,6.12
2023-03-28T23:35:12.145Z,5.30
2023-03-28T23:37:45.586Z,3.85
2023-03-28T23:42:47.273Z,4.20
2023-03-28T23:45:19.607Z,5.50
2023-03-28T23:47:51.306Z,4.15
2023-03-28T23:50:23.731Z,3.87
2023-03-28T23:52:54.918Z,5.35
2023-03-28T23:55:28.032Z,3.33
2023-03-28T23:58:03.332Z,4.07
